sensor_id;sensor_type;location;lat;lon;timestamp;pressure;altitude;pressure_sealevel;temperature;humidity
81005;BME280;70472;47.592;17.640;2023-06-01T12:34:00;99742.91;;;26.45;33.65
81005;BME280;70472;47.592;17.640;2023-06-01T12:34:33;99742.91;;;26.45;34.58
81005;BME280;70472;47.592;17.640;2023-06-01T12:35:06;99737.16;;;26.42;34.96
81005;BME280;70472;47.592;17.640;2023-06-01T12:35:49;99741.00;;;26.46;35.07
81005;BME280;70472;47.592;17.640;2023-06-01T12:36:32;99743.44;;;26.52;32.93
81005;BME280;70472;47.592;17.640;2023-06-01T12:37:17;99741.78;;;26.51;33.07
81005;BME280;70472;47.592;17.640;2023-06-01T12:38:07;99736.59;;;26.45;33.36
81005;BME280;70472;47.592;17.640;2023-06-01T12:38:51;99731.34;;;26.48;34.40
81005;BME280;70472;47.592;17.640;2023-06-01T12:39:34;99744.56;;;26.51;33.59
81005;BME280;70472;47.592;17.640;2023-06-01T12:40:09;99731.63;;;26.52;33.24
81005;BME280;70472;47.592;17.640;2023-06-01T12:40:42;99728.56;;;26.53;33.52
81005;BME280;70472;47.592;17.640;2023-06-01T12:41:32;99732.13;;;26.59;34.17
81005;BME280;70472;47.592;17.640;2023-06-01T12:42:04;99740.06;;;26.66;34.13
81005;BME280;70472;47.592;17.640;2023-06-01T12:42:40;99731.28;;;26.69;33.86
81005;BME280;70472;47.592;17.640;2023-06-01T12:43:19;99721.94;;;26.59;33.99
81005;BME280;70472;47.592;17.640;2023-06-01T12:43:52;99733.50;;;26.56;36.55
81005;BME280;70472;47.592;17.640;2023-06-01T12:44:27;99733.25;;;26.53;35.42
81005;BME280;70472;47.592;17.640;2023-06-01T12:44:59;99727.22;;;26.51;35.89
81005;BME280;70472;47.592;17.640;2023-06-01T12:45:37;99734.63;;;26.50;35.17
81005;BME280;70472;47.592;17.640;2023-06-01T12:46:21;99728.59;;;26.43;33.64
81005;BME280;70472;47.592;17.640;2023-06-01T12:46:57;99728.56;;;26.53;33.60
81005;BME280;70472;47.592;17.640;2023-06-01T12:48:00;99725.50;;;26.60;33.33
81005;BME280;70472;47.592;17.640;2023-06-01T12:48:36;99733.78;;;26.60;34.57
81005;BME280;70472;47.592;17.640;2023-06-01T12:49:15;99721.94;;;26.59;34.23
81005;BME280;70472;47.592;17.640;2023-06-01T12:50:05;99727.44;;;26.59;36.23
81005;BME280;70472;47.592;17.640;2023-06-01T12:50:44;99728.53;;;26.63;36.25
81005;BME280;70472;47.592;17.640;2023-06-01T12:51:18;99726.34;;;26.60;34.84
81005;BME280;70472;47.592;17.640;2023-06-01T12:51:51;99724.97;;;26.63;34.82
81005;BME280;70472;47.592;17.640;2023-06-01T12:52:23;99723.03;;;26.63;34.84
81005;BME280;70472;47.592;17.640;2023-06-01T12:52:56;99717.53;;;26.63;33.84
81005;BME280;70472;47.592;17.640;2023-06-01T12:53:29;99723.88;;;26.59;35.41
81005;BME280;70472;47.592;17.640;2023-06-01T12:54:02;99719.75;;;26.56;35.14
81005;BME280;70472;47.592;17.640;2023-06-01T12:54:35;99718.16;;;26.45;35.65
81005;BME280;70472;47.592;17.640;2023-06-01T12:55:08;99715.94;;;26.37;34.83
81005;BME280;70472;47.592;17.640;2023-06-01T12:55:41;99720.91;;;26.35;34.34
81005;BME280;70472;47.592;17.640;2023-06-01T12:56:14;99715.97;;;26.32;34.48
81005;BME280;70472;47.592;17.640;2023-06-01T12:56:48;99708.28;;;26.34;34.17
81005;BME280;70472;47.592;17.640;2023-06-01T12:57:21;99713.75;;;26.44;34.98
81005;BME280;70472;47.592;17.640;2023-06-01T12:57:55;99714.84;;;26.48;35.33
81005;BME280;70472;47.592;17.640;2023-06-01T12:58:28;99717.28;;;26.50;34.20
81005;BME280;70472;47.592;17.640;2023-06-01T12:59:00;99714.00;;;26.48;36.90
81005;BME280;70472;47.592;17.640;2023-06-01T12:59:33;99719.81;;;26.41;33.58
81005;BME280;70472;47.592;17.640;2023-06-01T13:00:06;99715.41;;;26.40;34.25
81005;BME280;70472;47.592;17.640;2023-06-01T13:00:39;99709.91;;;26.40;34.16
81005;BME280;70472;47.592;17.640;2023-06-01T13:01:21;99712.38;;;26.42;33.82
81005;BME280;70472;47.592;17.640;2023-06-01T13:01:55;99708.25;;;26.39;36.67
81005;BME280;70472;47.592;17.640;2023-06-01T13:02:28;99703.84;;;26.38;35.56
81005;BME280;70472;47.592;17.640;2023-06-01T13:03:01;99711.28;;;26.43;33.98
81005;BME280;70472;47.592;17.640;2023-06-01T13:03:34;99699.41;;;26.52;34.48
81005;BME280;70472;47.592;17.640;2023-06-01T13:04:06;99705.16;;;26.56;34.03
81005;BME280;70472;47.592;17.640;2023-06-01T13:04:40;99705.44;;;26.54;33.87
81005;BME280;70472;47.592;17.640;2023-06-01T13:05:13;99707.38;;;26.54;32.94
81005;BME280;70472;47.592;17.640;2023-06-01T13:05:48;99707.09;;;26.55;34.39
81005;BME280;70472;47.592;17.640;2023-06-01T13:06:22;99709.34;;;26.48;33.62
81005;BME280;70472;47.592;17.640;2023-06-01T13:06:54;99701.34;;;26.52;31.96
81005;BME280;70472;47.592;17.640;2023-06-01T13:07:27;99696.09;;;26.50;32.77
81005;BME280;70472;47.592;17.640;2023-06-01T13:08:00;99698.88;;;26.50;33.21
81005;BME280;70472;47.592;17.640;2023-06-01T13:08:33;99692.59;;;26.45;32.75
81005;BME280;70472;47.592;17.640;2023-06-01T13:09:06;99703.03;;;26.43;33.79
81005;BME280;70472;47.592;17.640;2023-06-01T13:09:40;99697.25;;;26.44;33.33
81005;BME280;70472;47.592;17.640;2023-06-01T13:10:13;99702.75;;;26.44;34.17
81005;BME280;70472;47.592;17.640;2023-06-01T13:10:46;99690.66;;;26.45;33.70
81005;BME280;70472;47.592;17.640;2023-06-01T13:11:19;99694.75;;;26.48;32.64
81005;BME280;70472;47.592;17.640;2023-06-01T13:11:52;99702.69;;;26.54;33.01
81005;BME280;70472;47.592;17.640;2023-06-01T13:12:26;99692.22;;;26.56;32.25
81005;BME280;70472;47.592;17.640;2023-06-01T13:13:00;99700.78;;;26.55;33.93
81005;BME280;70472;47.592;17.640;2023-06-01T13:13:33;99704.34;;;26.55;33.97
81005;BME280;70472;47.592;17.640;2023-06-01T13:14:05;99705.97;;;26.61;34.29
81005;BME280;70472;47.592;17.640;2023-06-01T13:14:38;99699.38;;;26.62;34.42
81005;BME280;70472;47.592;17.640;2023-06-01T13:15:10;99705.72;;;26.63;33.96
81005;BME280;70472;47.592;17.640;2023-06-01T13:15:45;99704.81;;;26.73;34.80
81005;BME280;70472;47.592;17.640;2023-06-01T13:16:18;99699.00;;;26.79;33.96
81005;BME280;70472;47.592;17.640;2023-06-01T13:16:50;99695.97;;;26.81;33.09
81005;BME280;70472;47.592;17.640;2023-06-01T13:17:23;99693.22;;;26.81;33.29
81005;BME280;70472;47.592;17.640;2023-06-01T13:17:56;99699.25;;;26.83;32.88
81005;BME280;70472;47.592;17.640;2023-06-01T13:18:29;99694.31;;;26.80;32.23
81005;BME280;70472;47.592;17.640;2023-06-01T13:19:01;99694.38;;;26.75;31.49
81005;BME280;70472;47.592;17.640;2023-06-01T13:19:36;99691.06;;;26.73;31.37
81005;BME280;70472;47.592;17.640;2023-06-01T13:20:10;99699.56;;;26.76;31.35
81005;BME280;70472;47.592;17.640;2023-06-01T13:20:48;99695.41;;;26.79;31.79
81005;BME280;70472;47.592;17.640;2023-06-01T13:21:24;99697.66;;;26.77;31.88
81005;BME280;70472;47.592;17.640;2023-06-01T13:21:58;99692.41;;;26.80;33.12
81005;BME280;70472;47.592;17.640;2023-06-01T13:22:31;99690.97;;;26.88;33.20
81005;BME280;70472;47.592;17.640;2023-06-01T13:23:04;99694.84;;;26.87;32.55
81005;BME280;70472;47.592;17.640;2023-06-01T13:24:00;99680.03;;;26.78;31.84
81005;BME280;70472;47.592;17.640;2023-06-01T13:24:44;99691.06;;;26.73;32.23
81005;BME280;70472;47.592;17.640;2023-06-01T13:25:20;99691.63;;;26.75;34.17
81005;BME280;70472;47.592;17.640;2023-06-01T13:25:55;99688.88;;;26.70;35.38
81005;BME280;70472;47.592;17.640;2023-06-01T13:26:28;99686.66;;;26.72;35.19
81005;BME280;70472;47.592;17.640;2023-06-01T13:27:05;99685.53;;;26.78;34.34
81005;BME280;70472;47.592;17.640;2023-06-01T13:27:38;99694.88;;;26.77;32.42
81005;BME280;70472;47.592;17.640;2023-06-01T13:28:11;99686.34;;;26.78;33.25
81005;BME280;70472;47.592;17.640;2023-06-01T13:28:45;99684.69;;;26.77;32.33
81005;BME280;70472;47.592;17.640;2023-06-01T13:29:18;99685.22;;;26.79;31.73
81005;BME280;70472;47.592;17.640;2023-06-01T13:29:53;99686.28;;;26.88;31.84
81005;BME280;70472;47.592;17.640;2023-06-01T13:30:27;99688.22;;;26.88;31.22
81005;BME280;70472;47.592;17.640;2023-06-01T13:31:05;99676.97;;;26.79;31.67
81005;BME280;70472;47.592;17.640;2023-06-01T13:31:38;99680.31;;;26.76;32.36
81005;BME280;70472;47.592;17.640;2023-06-01T13:32:11;99678.69;;;26.70;31.74
81005;BME280;70472;47.592;17.640;2023-06-01T13:32:44;99674.56;;;26.68;32.79
81005;BME280;70472;47.592;17.640;2023-06-01T13:33:17;99672.91;;;26.67;32.65
81005;BME280;70472;47.592;17.640;2023-06-01T13:33:50;99674.56;;;26.68;32.21
81005;BME280;70472;47.592;17.640;2023-06-01T13:34:23;99671.25;;;26.71;32.60
81005;BME280;70472;47.592;17.640;2023-06-01T13:35:11;99666.84;;;26.75;31.21
81005;BME280;70472;47.592;17.640;2023-06-01T13:35:44;99675.03;;;26.80;32.50
81005;BME280;70472;47.592;17.640;2023-06-01T13:36:17;99673.97;;;26.81;32.71
81005;BME280;70472;47.592;17.640;2023-06-01T13:36:50;99672.59;;;26.78;31.77
81005;BME280;70472;47.592;17.640;2023-06-01T13:37:23;99672.50;;;26.94;32.28
81005;BME280;70472;47.592;17.640;2023-06-01T13:37:55;99679.06;;;26.98;32.29
81005;BME280;70472;47.592;17.640;2023-06-01T13:38:28;99674.41;;;26.98;32.33
81005;BME280;70472;47.592;17.640;2023-06-01T13:39:01;99667.22;;;26.97;32.39
81005;BME280;70472;47.592;17.640;2023-06-01T13:39:36;99672.72;;;26.97;32.75
81005;BME280;70472;47.592;17.640;2023-06-01T13:40:09;99669.78;;;26.88;33.05
81005;BME280;70472;47.592;17.640;2023-06-01T13:40:42;99672.59;;;26.78;33.71
81005;BME280;70472;47.592;17.640;2023-06-01T13:41:15;99668.47;;;26.76;36.29
81005;BME280;70472;47.592;17.640;2023-06-01T13:41:47;99669.03;;;26.73;35.19
81005;BME280;70472;47.592;17.640;2023-06-01T13:42:20;99669.00;;;26.78;35.41
81005;BME280;70472;47.592;17.640;2023-06-01T13:42:53;99668.97;;;26.83;35.16
81005;BME280;70472;47.592;17.640;2023-06-01T13:43:26;99668.97;;;26.88;33.48
81005;BME280;70472;47.592;17.640;2023-06-01T13:43:59;99659.63;;;26.84;35.06
81005;BME280;70472;47.592;17.640;2023-06-01T13:44:33;99670.91;;;26.82;35.49
81005;BME280;70472;47.592;17.640;2023-06-01T13:45:06;99659.72;;;26.69;33.86
81005;BME280;70472;47.592;17.640;2023-06-01T13:45:40;99657.34;;;26.47;33.90
81005;BME280;70472;47.592;17.640;2023-06-01T13:46:13;99659.03;;;26.43;33.20
81005;BME280;70472;47.592;17.640;2023-06-01T13:46:45;99660.13;;;26.42;34.38
81005;BME280;70472;47.592;17.640;2023-06-01T13:47:18;99663.16;;;26.45;33.01
81005;BME280;70472;47.592;17.640;2023-06-01T13:47:51;99656.22;;;26.53;33.04
81005;BME280;70472;47.592;17.640;2023-06-01T13:48:24;99650.97;;;26.56;34.05
81005;BME280;70472;47.592;17.640;2023-06-01T13:48:57;99665.81;;;26.55;36.99
81005;BME280;70472;47.592;17.640;2023-06-01T13:49:30;99660.59;;;26.59;36.75
81005;BME280;70472;47.592;17.640;2023-06-01T13:50:03;99651.50;;;26.63;36.49
81005;BME280;70472;47.592;17.640;2023-06-01T13:50:36;99651.19;;;26.70;34.90
81005;BME280;70472;47.592;17.640;2023-06-01T13:51:10;99647.81;;;26.78;33.72
81005;BME280;70472;47.592;17.640;2023-06-01T13:51:42;99649.72;;;26.83;33.83
81005;BME280;70472;47.592;17.640;2023-06-01T13:52:15;99649.69;;;26.88;34.07
81005;BME280;70472;47.592;17.640;2023-06-01T13:52:48;99645.81;;;26.89;34.49
81005;BME280;70472;47.592;17.640;2023-06-01T13:53:47;99647.75;;;26.88;33.07
81005;BME280;70472;47.592;17.640;2023-06-01T13:54:20;99644.97;;;26.94;31.84
81005;BME280;70472;47.592;17.640;2023-06-01T13:54:54;99655.13;;;26.98;30.99
81005;BME280;70472;47.592;17.640;2023-06-01T13:55:27;99648.50;;;26.99;31.06
81005;BME280;70472;47.592;17.640;2023-06-01T13:56:00;99648.84;;;26.93;32.09
81005;BME280;70472;47.592;17.640;2023-06-01T13:56:34;99641.66;;;26.92;32.36
81005;BME280;70472;47.592;17.640;2023-06-01T13:57:07;99645.78;;;26.94;32.51
81005;BME280;70472;47.592;17.640;2023-06-01T13:57:41;99638.53;;;27.03;32.58
81005;BME280;70472;47.592;17.640;2023-06-01T13:58:13;99637.72;;;27.08;32.48
81005;BME280;70472;47.592;17.640;2023-06-01T13:58:46;99641.28;;;27.08;32.21
81005;BME280;70472;47.592;17.640;2023-06-01T13:59:19;99641.28;;;27.08;32.22
81005;BME280;70472;47.592;17.640;2023-06-01T13:59:52;99640.47;;;27.08;31.21
81005;BME280;70472;47.592;17.640;2023-06-01T14:00:25;99640.75;;;27.11;32.81
81005;BME280;70472;47.592;17.640;2023-06-01T14:01:01;99640.22;;;27.04;34.67
81005;BME280;70472;47.592;17.640;2023-06-01T14:01:33;99635.78;;;27.03;34.62
81005;BME280;70472;47.592;17.640;2023-06-01T14:02:07;99641.84;;;27.05;33.45
81005;BME280;70472;47.592;17.640;2023-06-01T14:02:41;99636.34;;;27.05;33.20
81005;BME280;70472;47.592;17.640;2023-06-01T14:03:16;99636.34;;;27.10;33.63
81005;BME280;70472;47.592;17.640;2023-06-01T14:03:56;99639.38;;;27.04;30.99
81005;BME280;70472;47.592;17.640;2023-06-01T14:04:32;99636.69;;;26.99;31.51
81005;BME280;70472;47.592;17.640;2023-06-01T14:05:05;99635.31;;;26.96;31.12
81005;BME280;70472;47.592;17.640;2023-06-01T14:05:41;99636.16;;;26.92;33.43
81005;BME280;70472;47.592;17.640;2023-06-01T14:06:20;99635.59;;;26.95;33.35
81005;BME280;70472;47.592;17.640;2023-06-01T14:06:52;99634.75;;;26.99;31.12
81005;BME280;70472;47.592;17.640;2023-06-01T14:07:27;99633.09;;;26.98;31.48
81005;BME280;70472;47.592;17.640;2023-06-01T14:08:00;99634.19;;;26.97;31.11
81005;BME280;70472;47.592;17.640;2023-06-01T14:08:34;99633.97;;;26.94;31.29
81005;BME280;70472;47.592;17.640;2023-06-01T14:09:07;99628.44;;;26.94;30.76
81005;BME280;70472;47.592;17.640;2023-06-01T14:09:40;99631.16;;;26.99;31.71
81005;BME280;70472;47.592;17.640;2023-06-01T14:10:13;99629.47;;;27.03;32.50
81005;BME280;70472;47.592;17.640;2023-06-01T14:10:47;99630.53;;;27.12;33.19
81005;BME280;70472;47.592;17.640;2023-06-01T14:11:19;99632.44;;;27.17;31.66
81005;BME280;70472;47.592;17.640;2023-06-01T14:11:52;99630.22;;;27.19;32.12
81005;BME280;70472;47.592;17.640;2023-06-01T14:12:25;99630.72;;;27.21;32.39
81005;BME280;70472;47.592;17.640;2023-06-01T14:12:57;99632.09;;;27.23;32.02
81005;BME280;70472;47.592;17.640;2023-06-01T14:13:30;99633.44;;;27.26;31.68
81005;BME280;70472;47.592;17.640;2023-06-01T14:14:05;99629.06;;;27.25;31.61
81005;BME280;70472;47.592;17.640;2023-06-01T14:14:41;99628.25;;;27.24;30.58
81005;BME280;70472;47.592;17.640;2023-06-01T14:15:14;99624.66;;;27.24;32.03
81005;BME280;70472;47.592;17.640;2023-06-01T14:15:47;99628.78;;;27.21;32.12
81005;BME280;70472;47.592;17.640;2023-06-01T14:16:19;99620.69;;;27.06;33.83
81005;BME280;70472;47.592;17.640;2023-06-01T14:16:52;99618.78;;;26.96;34.88
81005;BME280;70472;47.592;17.640;2023-06-01T14:17:25;99623.19;;;26.97;34.20
81005;BME280;70472;47.592;17.640;2023-06-01T14:17:57;99626.47;;;26.99;32.94
81005;BME280;70472;47.592;17.640;2023-06-01T14:18:31;99617.66;;;26.97;33.00
81005;BME280;70472;47.592;17.640;2023-06-01T14:19:03;99616.03;;;26.96;32.43
81005;BME280;70472;47.592;17.640;2023-06-01T14:19:36;99614.72;;;26.88;31.18
81005;BME280;70472;47.592;17.640;2023-06-01T14:20:09;99620.50;;;26.92;34.16
81005;BME280;70472;47.592;17.640;2023-06-01T14:20:43;99618.81;;;26.91;31.57
81005;BME280;70472;47.592;17.640;2023-06-01T14:21:18;99614.97;;;26.92;31.26
81005;BME280;70472;47.592;17.640;2023-06-01T14:21:50;99616.59;;;26.98;31.97
81005;BME280;70472;47.592;17.640;2023-06-01T14:22:23;99616.59;;;26.98;32.72
81005;BME280;70472;47.592;17.640;2023-06-01T14:22:56;99620.94;;;27.04;34.04
81005;BME280;70472;47.592;17.640;2023-06-01T14:23:29;99608.25;;;27.08;33.62
81005;BME280;70472;47.592;17.640;2023-06-01T14:24:02;99612.66;;;27.09;33.74
81005;BME280;70472;47.592;17.640;2023-06-01T14:24:35;99603.00;;;27.12;33.96
81005;BME280;70472;47.592;17.640;2023-06-01T14:25:08;99610.97;;;27.13;33.15
81005;BME280;70472;47.592;17.640;2023-06-01T14:25:43;99607.91;;;27.15;34.40
81005;BME280;70472;47.592;17.640;2023-06-01T14:26:26;99610.41;;;27.17;33.78
81005;BME280;70472;47.592;17.640;2023-06-01T14:26:59;99608.75;;;27.15;34.00
81005;BME280;70472;47.592;17.640;2023-06-01T14:27:32;99609.59;;;27.16;34.26
81005;BME280;70472;47.592;17.640;2023-06-01T14:28:08;99610.41;;;27.17;32.93
81005;BME280;70472;47.592;17.640;2023-06-01T14:28:40;99601.38;;;27.11;30.71
81005;BME280;70472;47.592;17.640;2023-06-01T14:29:13;99598.06;;;27.09;34.01
81005;BME280;70472;47.592;17.640;2023-06-01T14:29:46;99600.81;;;27.09;33.81
81005;BME280;70472;47.592;17.640;2023-06-01T14:30:18;99598.88;;;27.09;32.76
81005;BME280;70472;47.592;17.640;2023-06-01T14:30:51;99603.00;;;27.12;32.90
81005;BME280;70472;47.592;17.640;2023-06-01T14:31:23;99599.41;;;27.17;32.69
81005;BME280;70472;47.592;17.640;2023-06-01T14:31:56;99603.16;;;27.26;31.38
81005;BME280;70472;47.592;17.640;2023-06-01T14:32:29;99597.06;;;27.29;31.00
81005;BME280;70472;47.592;17.640;2023-06-01T14:33:02;99608.09;;;27.29;31.07
81005;BME280;70472;47.592;17.640;2023-06-01T14:33:34;99602.63;;;27.24;29.86
81005;BME280;70472;47.592;17.640;2023-06-01T14:34:08;99600.69;;;27.24;30.49
81005;BME280;70472;47.592;17.640;2023-06-01T14:34:41;99597.59;;;27.31;31.11
81005;BME280;70472;47.592;17.640;2023-06-01T14:35:13;99601.69;;;27.33;30.12
81005;BME280;70472;47.592;17.640;2023-06-01T14:35:48;99601.50;;;27.25;30.72
81005;BME280;70472;47.592;17.640;2023-06-01T14:36:21;99593.81;;;27.22;31.28
81005;BME280;70472;47.592;17.640;2023-06-01T14:36:55;99602.63;;;27.24;31.28
81005;BME280;70472;47.592;17.640;2023-06-01T14:37:28;99599.28;;;27.27;30.08
81005;BME280;70472;47.592;17.640;2023-06-01T14:38:06;99594.38;;;27.24;32.59
81005;BME280;70472;47.592;17.640;2023-06-01T14:38:40;99597.16;;;27.19;33.41
81005;BME280;70472;47.592;17.640;2023-06-01T14:39:16;99596.56;;;27.22;33.08
81005;BME280;70472;47.592;17.640;2023-06-01T14:39:49;99594.38;;;27.24;33.09
81005;BME280;70472;47.592;17.640;2023-06-01T14:40:22;99594.66;;;27.22;31.94
81005;BME280;70472;47.592;17.640;2023-06-01T14:40:55;99591.94;;;27.17;31.32
81005;BME280;70472;47.592;17.640;2023-06-01T14:41:32;99592.44;;;27.24;31.41
81005;BME280;70472;47.592;17.640;2023-06-01T14:42:05;99596.47;;;27.32;31.79
81005;BME280;70472;47.592;17.640;2023-06-01T14:42:39;99596.75;;;27.35;31.51
81005;BME280;70472;47.592;17.640;2023-06-01T14:43:12;99592.38;;;27.29;32.55
81005;BME280;70472;47.592;17.640;2023-06-01T14:43:48;99593.28;;;27.20;32.46
81005;BME280;70472;47.592;17.640;2023-06-01T14:44:24;99594.78;;;27.02;33.52
81005;BME280;70472;47.592;17.640;2023-06-01T14:44:56;99595.44;;;26.88;34.21
81005;BME280;70472;47.592;17.640;2023-06-01T14:45:36;99588.56;;;26.86;33.15
81005;BME280;70472;47.592;17.640;2023-06-01T14:46:08;99591.84;;;26.93;34.16
81005;BME280;70472;47.592;17.640;2023-06-01T14:46:41;99587.38;;;26.97;33.01
81005;BME280;70472;47.592;17.640;2023-06-01T14:47:14;99586.22;;;27.03;32.20
81005;BME280;70472;47.592;17.640;2023-06-01T14:47:49;99594.44;;;27.13;31.98
81005;BME280;70472;47.592;17.640;2023-06-01T14:48:22;99594.41;;;27.19;31.45
81005;BME280;70472;47.592;17.640;2023-06-01T14:48:55;99599.41;;;27.17;31.33
81005;BME280;70472;47.592;17.640;2023-06-01T14:49:29;99589.56;;;27.00;31.75
81005;BME280;70472;47.592;17.640;2023-06-01T14:50:07;99587.50;;;26.87;32.40
81005;BME280;70472;47.592;17.640;2023-06-01T14:50:40;99585.88;;;26.81;31.57
81005;BME280;70472;47.592;17.640;2023-06-01T14:51:16;99582.31;;;26.80;31.07
81005;BME280;70472;47.592;17.640;2023-06-01T14:51:50;99579.31;;;26.77;32.13
81005;BME280;70472;47.592;17.640;2023-06-01T14:52:28;99584.28;;;26.75;32.21
81005;BME280;70472;47.592;17.640;2023-06-01T14:53:00;99582.09;;;26.72;33.16
81005;BME280;70472;47.592;17.640;2023-06-01T14:53:33;99581.00;;;26.68;32.33
81005;BME280;70472;47.592;17.640;2023-06-01T14:54:06;99580.50;;;26.60;34.14
81005;BME280;70472;47.592;17.640;2023-06-01T14:54:41;99582.16;;;26.61;32.37
81005;BME280;70472;47.592;17.640;2023-06-01T14:55:15;99573.38;;;26.59;31.74
81005;BME280;70472;47.592;17.640;2023-06-01T14:55:50;99576.66;;;26.61;31.66
81005;BME280;70472;47.592;17.640;2023-06-01T14:56:23;99572.81;;;26.62;32.71
81005;BME280;70472;47.592;17.640;2023-06-01T14:56:56;99573.34;;;26.65;34.20
81005;BME280;70472;47.592;17.640;2023-06-01T14:57:29;99578.00;;;26.69;33.63
81005;BME280;70472;47.592;17.640;2023-06-01T14:58:03;99568.66;;;26.65;35.10
81005;BME280;70472;47.592;17.640;2023-06-01T14:58:35;99566.16;;;26.69;34.55
81005;BME280;70472;47.592;17.640;2023-06-01T14:59:40;99569.44;;;26.71;34.82
81005;BME280;70472;47.592;17.640;2023-06-01T15:00:17;99569.41;;;26.76;33.65
81005;BME280;70472;47.592;17.640;2023-06-01T15:00:50;99561.03;;;26.86;32.18
81005;BME280;70472;47.592;17.640;2023-06-01T15:01:23;99568.72;;;26.94;32.17
81005;BME280;70472;47.592;17.640;2023-06-01T15:01:56;99566.47;;;26.96;32.41
81005;BME280;70472;47.592;17.640;2023-06-01T15:02:32;99567.03;;;26.98;33.76
81005;BME280;70472;47.592;17.640;2023-06-01T15:03:06;99567.03;;;26.98;33.83
81005;BME280;70472;47.592;17.640;2023-06-01T15:03:39;99568.72;;;26.94;32.73
81005;BME280;70472;47.592;17.640;2023-06-01T15:04:12;99572.28;;;26.95;31.96
81005;BME280;70472;47.592;17.640;2023-06-01T15:04:45;99559.34;;;26.95;32.79
81005;BME280;70472;47.592;17.640;2023-06-01T15:05:18;99569.50;;;27.00;33.86
81005;BME280;70472;47.592;17.640;2023-06-01T15:05:51;99570.84;;;27.02;33.23
81005;BME280;70472;47.592;17.640;2023-06-01T15:06:25;99570.53;;;27.09;31.87
81005;BME280;70472;47.592;17.640;2023-06-01T15:07:01;99561.41;;;27.13;33.30
81005;BME280;70472;47.592;17.640;2023-06-01T15:07:36;99569.38;;;27.15;31.90
81005;BME280;70472;47.592;17.640;2023-06-01T15:08:09;99569.09;;;27.17;32.77
81005;BME280;70472;47.592;17.640;2023-06-01T15:08:42;99572.38;;;27.19;33.28
81005;BME280;70472;47.592;17.640;2023-06-01T15:09:15;99562.47;;;27.18;30.76
81005;BME280;70472;47.592;17.640;2023-06-01T15:09:48;99566.34;;;27.17;30.79
81005;BME280;70472;47.592;17.640;2023-06-01T15:10:21;99573.50;;;27.18;31.71
81005;BME280;70472;47.592;17.640;2023-06-01T15:10:58;99561.06;;;27.20;30.51
81005;BME280;70472;47.592;17.640;2023-06-01T15:11:31;99565.44;;;27.21;30.96
81005;BME280;70472;47.592;17.640;2023-06-01T15:12:05;99565.75;;;27.20;31.70
81005;BME280;70472;47.592;17.640;2023-06-01T15:12:39;99567.97;;;27.18;30.39
81005;BME280;70472;47.592;17.640;2023-06-01T15:13:12;99570.44;;;27.19;31.12
81005;BME280;70472;47.592;17.640;2023-06-01T15:13:47;99572.06;;;27.20;31.37
81005;BME280;70472;47.592;17.640;2023-06-01T15:14:20;99563.81;;;27.20;31.40
81005;BME280;70472;47.592;17.640;2023-06-01T15:14:53;99566.28;;;27.22;31.79
81005;BME280;70472;47.592;17.640;2023-06-01T15:15:25;99565.19;;;27.23;31.39
81005;BME280;70472;47.592;17.640;2023-06-01T15:15:59;99569.31;;;27.20;31.67
81005;BME280;70472;47.592;17.640;2023-06-01T15:16:35;99571.25;;;27.20;31.21
81005;BME280;70472;47.592;17.640;2023-06-01T15:17:11;99563.28;;;27.18;32.53
81005;BME280;70472;47.592;17.640;2023-06-01T15:17:44;99566.88;;;27.19;31.61
81005;BME280;70472;47.592;17.640;2023-06-01T15:18:17;99564.94;;;27.19;31.52
81005;BME280;70472;47.592;17.640;2023-06-01T15:18:49;99561.31;;;27.24;32.47
81005;BME280;70472;47.592;17.640;2023-06-01T15:19:25;99565.41;;;27.26;31.21
81005;BME280;70472;47.592;17.640;2023-06-01T15:19:58;99565.16;;;27.28;31.44
81005;BME280;70472;47.592;17.640;2023-06-01T15:20:31;99564.03;;;27.29;32.04
81005;BME280;70472;47.592;17.640;2023-06-01T15:21:07;99560.66;;;27.32;31.49
81005;BME280;70472;47.592;17.640;2023-06-01T15:21:40;99564.78;;;27.34;31.62
81005;BME280;70472;47.592;17.640;2023-06-01T15:22:14;99561.22;;;27.34;31.93
81005;BME280;70472;47.592;17.640;2023-06-01T15:22:47;99571.13;;;27.35;32.03
81005;BME280;70472;47.592;17.640;2023-06-01T15:23:20;99564.78;;;27.34;30.92
81005;BME280;70472;47.592;17.640;2023-06-01T15:23:53;99564.25;;;27.32;30.09
81005;BME280;70472;47.592;17.640;2023-06-01T15:24:25;99561.50;;;27.32;30.85
81005;BME280;70472;47.592;17.640;2023-06-01T15:24:58;99560.38;;;27.33;30.75
81005;BME280;70472;47.592;17.640;2023-06-01T15:25:31;99561.22;;;27.34;30.17
81005;BME280;70472;47.592;17.640;2023-06-01T15:26:03;99560.94;;;27.35;30.52
81005;BME280;70472;47.592;17.640;2023-06-01T15:26:36;99556.75;;;27.38;31.18
81005;BME280;70472;47.592;17.640;2023-06-01T15:27:09;99555.13;;;27.37;31.03
81005;BME280;70472;47.592;17.640;2023-06-01T15:27:42;99557.91;;;27.32;29.87
81005;BME280;70472;47.592;17.640;2023-06-01T15:28:14;99554.94;;;27.28;31.01
81005;BME280;70472;47.592;17.640;2023-06-01T15:28:47;99558.94;;;27.12;31.79
81005;BME280;70472;47.592;17.640;2023-06-01T15:29:20;99548.75;;;27.12;32.58
81005;BME280;70472;47.592;17.640;2023-06-01T15:29:52;99557.00;;;27.12;31.69
81005;BME280;70472;47.592;17.640;2023-06-01T15:30:28;99552.28;;;27.18;31.44
81005;BME280;70472;47.592;17.640;2023-06-01T15:31:03;99556.41;;;27.15;32.23
81005;BME280;70472;47.592;17.640;2023-06-01T15:31:37;99551.97;;;27.20;31.60
81005;BME280;70472;47.592;17.640;2023-06-01T15:32:09;99551.41;;;27.23;31.97
81005;BME280;70472;47.592;17.640;2023-06-01T15:32:42;99552.50;;;27.22;30.66
81005;BME280;70472;47.592;17.640;2023-06-01T15:33:19;99553.63;;;27.21;32.58
81005;BME280;70472;47.592;17.640;2023-06-01T15:33:52;99544.53;;;27.20;32.31